createdAt,value
2022-09-13T00:01:45.770Z,94347.84
2022-09-13T00:04:12.624Z,94348.84
2022-09-13T00:06:39.405Z,94355.47
2022-09-13T00:09:06.352Z,94364.94
2022-09-13T00:11:33.455Z,94343.03
2022-09-13T00:14:00.369Z,94349.56
2022-09-13T00:16:29.651Z,94342.19
2022-09-13T00:18:58.013Z,94353.16
2022-09-13T00:21:25.276Z,94305.31
2022-09-13T00:23:54.082Z,94333.41
2022-09-13T00:26:27.098Z,94328.94
2022-09-13T00:28:56.574Z,94339.22
2022-09-13T00:31:26.582Z,94308.59
2022-09-13T00:33:53.973Z,94312.41
2022-09-13T00:36:21.155Z,94315.78
2022-09-13T00:38:47.923Z,94322.00
2022-09-13T00:41:17.543Z,94324.78
2022-09-13T00:43:50.864Z,94317.13
2022-09-13T00:46:47.758Z,94316.13
2022-09-13T00:49:37.249Z,94315.13
2022-09-13T00:52:10.903Z,94326.28
2022-09-13T00:54:45.594Z,94330.63
2022-09-13T00:57:14.843Z,94323.56
2022-09-13T00:59:50.394Z,94310.41
2022-09-13T01:02:17.298Z,94319.63
2022-09-13T01:04:44.931Z,94303.50
2022-09-13T01:07:15.279Z,94307.69
2022-09-13T01:09:46.014Z,94311.91
2022-09-13T01:12:32.109Z,94309.81
2022-09-13T01:15:01.323Z,94314.34
2022-09-13T01:17:30.676Z,94309.81
2022-09-13T01:19:58.560Z,94307.88
2022-09-13T01:22:50.230Z,94310.47
2022-09-13T01:25:16.923Z,94308.59
2022-09-13T01:28:01.993Z,94310.13
2022-09-13T01:30:38.587Z,94323.91
2022-09-13T01:34:07.222Z,94304.41
2022-09-13T01:37:50.533Z,94301.38
2022-09-13T01:40:38.530Z,94306.63
2022-09-13T01:43:46.698Z,94298.41
2022-09-13T01:46:23.042Z,94308.78
2022-09-13T01:49:15.569Z,94293.69
2022-09-13T01:52:08.777Z,94303.38
2022-09-13T01:54:50.611Z,94297.13
2022-09-13T01:57:48.740Z,94286.25
2022-09-13T02:00:18.788Z,94280.69
2022-09-13T02:03:11.287Z,94305.44
2022-09-13T02:06:08.932Z,94306.84
2022-09-13T02:08:47.487Z,94300.19
2022-09-13T02:11:17.561Z,94311.34
2022-09-13T02:13:54.847Z,94308.81
2022-09-13T02:16:32.228Z,94322.72
2022-09-13T02:19:13.694Z,94294.34
2022-09-13T02:21:45.274Z,94318.31
2022-09-13T02:24:34.498Z,94303.03
2022-09-13T02:27:32.745Z,94306.06
2022-09-13T02:30:05.784Z,94307.75
2022-09-13T02:32:40.758Z,94311.78
2022-09-13T02:35:14.951Z,94297.03
2022-09-13T02:37:47.338Z,94311.94
2022-09-13T02:40:22.885Z,94308.38
2022-09-13T02:43:05.071Z,94308.97
2022-09-13T02:46:21.143Z,94311.88
2022-09-13T02:49:08.671Z,94313.97
2022-09-13T02:51:57.221Z,94304.94
2022-09-13T02:54:53.249Z,94306.06
2022-09-13T02:57:33.226Z,94310.53
2022-09-13T03:00:00.597Z,94316.25
2022-09-13T03:02:34.295Z,94320.34
2022-09-13T03:05:02.619Z,94313.09
2022-09-13T03:07:29.711Z,94323.13
2022-09-13T03:10:04.602Z,94307.13
2022-09-13T03:13:01.926Z,94319.28
2022-09-13T03:15:53.574Z,94321.72
2022-09-13T03:18:49.441Z,94321.50
2022-09-13T03:21:33.062Z,94319.38
2022-09-13T03:24:18.447Z,94300.34
2022-09-13T03:27:15.236Z,94301.00
2022-09-13T03:30:20.510Z,94293.59
2022-09-13T03:32:58.276Z,94300.50
2022-09-13T03:35:41.965Z,94294.44
2022-09-13T03:38:21.701Z,94302.63
2022-09-13T03:41:07.579Z,94296.53
2022-09-13T03:43:43.443Z,94291.38
2022-09-13T03:46:20.391Z,94287.94
2022-09-13T03:48:48.025Z,94270.94
2022-09-13T03:51:15.465Z,94285.22
2022-09-13T03:53:52.067Z,94288.22
2022-09-13T03:56:21.109Z,94279.19
2022-09-13T03:58:49.334Z,94295.09
2022-09-13T04:01:22.751Z,94292.81
2022-09-13T04:03:53.423Z,94282.84
2022-09-13T04:06:23.319Z,94281.34
2022-09-13T04:08:50.263Z,94288.75
2022-09-13T04:11:17.094Z,94288.09
2022-09-13T04:13:43.983Z,94301.88
2022-09-13T04:16:10.766Z,94285.34
2022-09-13T04:18:37.556Z,94283.53
2022-09-13T04:21:04.860Z,94288.09
2022-09-13T04:23:31.666Z,94281.97
2022-09-13T04:26:05.992Z,94287.97
2022-09-13T04:28:32.768Z,94301.91
2022-09-13T04:30:59.513Z,94310.41
2022-09-13T04:33:26.212Z,94295.47
2022-09-13T04:35:59.833Z,94294.66
2022-09-13T04:38:27.329Z,94299.50
2022-09-13T04:40:57.276Z,94300.06
2022-09-13T04:43:24.931Z,94307.94
2022-09-13T04:45:51.983Z,94315.16
2022-09-13T04:48:18.929Z,94309.09
2022-09-13T04:50:45.733Z,94305.16
2022-09-13T04:53:12.549Z,94305.78
2022-09-13T04:55:39.301Z,94305.59
2022-09-13T04:58:06.367Z,94309.22
2022-09-13T05:00:34.080Z,94316.75
2022-09-13T05:03:01.016Z,94332.66
2022-09-13T05:05:29.016Z,94327.25
2022-09-13T05:07:56.226Z,94323.94
2022-09-13T05:10:23.149Z,94326.38
2022-09-13T05:12:49.926Z,94326.72
2022-09-13T05:15:16.839Z,94327.53
2022-09-13T05:17:43.564Z,94327.88
2022-09-13T05:20:11.206Z,94321.81
2022-09-13T05:22:38.070Z,94325.28
2022-09-13T05:25:05.638Z,94326.63
2022-09-13T05:27:32.334Z,94327.09
2022-09-13T05:29:59.053Z,94313.50
2022-09-13T05:32:25.804Z,94323.66
2022-09-13T05:34:52.542Z,94332.06
2022-09-13T05:37:19.343Z,94325.31
2022-09-13T05:40:07.812Z,94314.16
2022-09-13T05:42:32.826Z,94324.94
2022-09-13T05:44:59.575Z,94318.06
2022-09-13T05:47:26.339Z,94312.97
2022-09-13T05:50:09.848Z,94316.72
2022-09-13T05:52:37.759Z,94320.28
2022-09-13T05:55:04.882Z,94320.63
2022-09-13T05:57:32.004Z,94311.72
2022-09-13T05:59:58.794Z,94323.56
2022-09-13T06:02:25.552Z,94321.28
2022-09-13T06:04:52.411Z,94322.59
2022-09-13T06:07:19.132Z,94324.69
2022-09-13T06:09:45.898Z,94330.41
2022-09-13T06:12:12.590Z,94344.78
2022-09-13T06:14:39.322Z,94341.84
2022-09-13T06:17:06.552Z,94335.09
2022-09-13T06:19:33.360Z,94338.47
2022-09-13T06:22:00.215Z,94319.44
2022-09-13T06:24:26.912Z,94332.84
2022-09-13T06:26:54.311Z,94321.97
2022-09-13T06:29:21.047Z,94322.28
2022-09-13T06:31:47.825Z,94322.13
2022-09-13T06:34:16.204Z,94319.44
2022-09-13T06:36:43.310Z,94316.75
2022-09-13T06:39:10.134Z,94301.13
2022-09-13T06:41:37.581Z,94298.81
2022-09-13T06:44:04.558Z,94302.22
2022-09-13T06:46:34.798Z,94298.34
2022-09-13T06:49:05.261Z,94302.94
2022-09-13T06:51:33.724Z,94292.50
2022-09-13T06:54:01.405Z,94293.06
2022-09-13T06:56:36.226Z,94284.00
2022-09-13T06:59:07.166Z,94271.47
2022-09-13T07:01:38.557Z,94288.28
2022-09-13T07:04:12.340Z,94295.22
2022-09-13T07:06:42.738Z,94291.50
2022-09-13T07:09:13.798Z,94298.88
2022-09-13T07:11:42.318Z,94301.94
2022-09-13T07:14:09.477Z,94289.81
2022-09-13T07:16:38.579Z,94285.66
2022-09-13T07:19:11.272Z,94291.38
2022-09-13T07:21:38.084Z,94289.56
2022-09-13T07:24:05.381Z,94279.31
2022-09-13T07:26:32.276Z,94287.28
2022-09-13T07:29:03.157Z,94283.34
2022-09-13T07:31:37.287Z,94292.41
2022-09-13T07:34:12.750Z,94289.13
2022-09-13T07:36:39.460Z,94283.53
2022-09-13T07:39:08.237Z,94282.25
2022-09-13T07:41:37.332Z,94283.31
2022-09-13T07:44:06.492Z,94276.44
2022-09-13T07:46:41.545Z,94280.53
2022-09-13T07:49:09.866Z,94261.63
2022-09-13T07:51:39.717Z,94276.31
2022-09-13T07:54:15.521Z,94265.28
2022-09-13T07:56:42.904Z,94265.81
2022-09-13T07:59:17.136Z,94257.19
2022-09-13T08:01:47.194Z,94270.16
2022-09-13T08:04:18.658Z,94263.69
2022-09-13T08:06:46.859Z,94257.66
2022-09-13T08:09:14.193Z,94257.44
2022-09-13T08:11:51.901Z,94265.22
2022-09-13T08:14:20.786Z,94269.44
2022-09-13T08:16:48.111Z,94275.56
2022-09-13T08:19:17.755Z,94278.09
2022-09-13T08:21:45.437Z,94273.16
2022-09-13T08:24:24.309Z,94258.69
2022-09-13T08:26:52.190Z,94270.47
2022-09-13T08:29:19.352Z,94256.97
2022-09-13T08:31:46.087Z,94260.34
2022-09-13T08:34:15.700Z,94261.53
2022-09-13T08:36:43.342Z,94268.94
2022-09-13T08:39:13.920Z,94264.19
2022-09-13T08:41:42.178Z,94270.28
2022-09-13T08:44:36.309Z,94271.50
2022-09-13T08:47:23.948Z,94277.56
2022-09-13T08:50:07.201Z,94269.53
2022-09-13T08:52:36.763Z,94263.72
2022-09-13T08:55:20.334Z,94254.56
2022-09-13T08:57:54.994Z,94266.00
2022-09-13T09:00:40.862Z,94262.47
2022-09-13T09:03:42.196Z,94257.44
2022-09-13T09:06:16.986Z,94246.84
2022-09-13T09:08:58.113Z,94233.13
2022-09-13T09:11:42.189Z,94237.75
2022-09-13T09:14:49.065Z,94230.25
2022-09-13T09:17:25.473Z,94228.16
2022-09-13T09:20:09.715Z,94229.22
2022-09-13T09:22:36.641Z,94234.25
2022-09-13T09:25:05.040Z,94228.38
2022-09-13T09:27:32.373Z,94232.25
2022-09-13T09:29:59.382Z,94228.88
2022-09-13T09:32:44.262Z,94224.84
2022-09-13T09:35:28.280Z,94228.09
2022-09-13T09:38:27.442Z,94224.16
2022-09-13T09:40:54.227Z,94223.94
2022-09-13T09:43:33.511Z,94208.66
2022-09-13T09:46:03.445Z,94209.22
2022-09-13T09:48:42.408Z,94199.78
2022-09-13T09:51:11.866Z,94194.44
2022-09-13T09:53:45.874Z,94199.81
2022-09-13T09:56:23.976Z,94195.50
2022-09-13T09:58:53.298Z,94201.97
2022-09-13T10:01:34.158Z,94197.09
2022-09-13T10:04:12.892Z,94199.25
2022-09-13T10:06:42.044Z,94187.34
2022-09-13T10:09:14.577Z,94193.28
2022-09-13T10:11:54.033Z,94182.53
2022-09-13T10:14:46.270Z,94191.38
2022-09-13T10:17:29.096Z,94196.41
2022-09-13T10:19:59.785Z,94211.72
2022-09-13T10:22:28.435Z,94204.63
2022-09-13T10:24:56.105Z,94208.00
2022-09-13T10:27:43.122Z,94209.31
2022-09-13T10:30:47.328Z,94204.03
2022-09-13T10:33:37.490Z,94194.16
2022-09-13T10:36:41.592Z,94206.19
2022-09-13T10:39:18.158Z,94206.94
2022-09-13T10:41:52.191Z,94215.41
2022-09-13T10:44:47.551Z,94208.47
2022-09-13T10:47:24.597Z,94211.78
2022-09-13T10:49:54.277Z,94201.81
2022-09-13T10:52:35.050Z,94202.69
2022-09-13T10:55:19.966Z,94206.81
2022-09-13T10:57:53.006Z,94194.91
2022-09-13T11:00:24.730Z,94192.66
2022-09-13T11:03:32.384Z,94195.56
2022-09-13T11:06:24.602Z,94187.81
2022-09-13T11:09:17.869Z,94187.09
2022-09-13T11:12:06.233Z,94179.84
2022-09-13T11:14:58.283Z,94176.31
2022-09-13T11:17:50.634Z,94182.22
2022-09-13T11:20:45.651Z,94173.63
2022-09-13T11:23:35.548Z,94173.78
2022-09-13T11:26:30.298Z,94181.47
2022-09-13T11:29:30.491Z,94182.56
2022-09-13T11:32:27.905Z,94186.22
2022-09-13T11:35:50.994Z,94178.09
2022-09-13T11:38:49.942Z,94180.47
2022-09-13T11:41:45.321Z,94184.97
2022-09-13T11:44:49.502Z,94164.75
2022-09-13T11:47:43.580Z,94184.44
2022-09-13T11:50:44.922Z,94175.19
2022-09-13T11:53:31.877Z,94170.91
2022-09-13T11:56:06.778Z,94162.84
2022-09-13T11:58:43.254Z,94158.75
2022-09-13T12:01:14.162Z,94159.25
2022-09-13T12:04:11.656Z,94164.66
2022-09-13T12:06:43.374Z,94151.47
2022-09-13T12:09:18.994Z,94146.47
2022-09-13T12:12:07.868Z,94151.13
2022-09-13T12:14:54.646Z,94155.75
2022-09-13T12:17:32.187Z,94159.63
2022-09-13T12:20:02.293Z,94143.94
2022-09-13T12:22:34.241Z,94154.91
2022-09-13T12:25:11.254Z,94146.09
2022-09-13T12:27:59.257Z,94145.91
2022-09-13T12:30:37.861Z,94147.91
2022-09-13T12:33:06.806Z,94139.56
2022-09-13T12:36:17.733Z,94136.72
2022-09-13T12:39:35.347Z,94143.84
2022-09-13T12:42:49.670Z,94137.34
2022-09-13T12:45:24.196Z,94129.50
2022-09-13T12:48:47.930Z,94118.25
2022-09-13T12:51:23.836Z,94125.88
2022-09-13T12:54:17.070Z,94127.41
2022-09-13T12:56:58.647Z,94132.94
2022-09-13T13:00:13.020Z,94121.59
2022-09-13T13:02:54.732Z,94118.59
2022-09-13T13:05:31.336Z,94120.50
2022-09-13T13:08:03.492Z,94107.66
2022-09-13T13:10:36.962Z,94101.22
2022-09-13T13:13:36.380Z,94096.59
2022-09-13T13:16:34.335Z,94114.06
2022-09-13T13:19:04.547Z,94110.66
2022-09-13T13:21:39.158Z,94098.41
2022-09-13T13:24:28.510Z,94108.84
2022-09-13T13:26:58.418Z,94110.44
2022-09-13T13:29:30.865Z,94112.03
2022-09-13T13:31:57.564Z,94110.28
2022-09-13T13:34:24.232Z,94110.84
2022-09-13T13:37:32.876Z,94100.50
2022-09-13T13:40:22.047Z,94103.31
2022-09-13T13:42:49.101Z,94097.63
2022-09-13T13:45:25.228Z,94087.16
2022-09-13T13:48:55.283Z,94093.56
2022-09-13T13:51:26.049Z,94090.50
2022-09-13T13:54:05.942Z,94088.16
2022-09-13T13:56:47.047Z,94085.34
2022-09-13T13:59:25.531Z,94089.66
2022-09-13T14:01:59.567Z,94091.97
2022-09-13T14:05:13.530Z,94089.06
2022-09-13T14:08:10.256Z,94096.41
2022-09-13T14:10:58.004Z,94082.66
2022-09-13T14:13:42.279Z,94090.56
2022-09-13T14:16:22.878Z,94089.50
2022-09-13T14:19:19.591Z,94087.00
2022-09-13T14:21:46.470Z,94084.69
2022-09-13T14:24:23.637Z,94087.75
2022-09-13T14:26:59.288Z,94085.09
2022-09-13T14:29:26.386Z,94079.81
2022-09-13T14:32:01.556Z,94074.09
2022-09-13T14:34:32.585Z,94068.75
2022-09-13T14:37:02.643Z,94065.13
2022-09-13T14:39:30.758Z,94056.28
2022-09-13T14:42:16.299Z,94071.38
2022-09-13T14:44:47.390Z,94063.72
2022-09-13T14:47:27.061Z,94054.84
2022-09-13T14:50:16.744Z,94051.22
2022-09-13T14:52:52.405Z,94052.84
2022-09-13T14:55:26.528Z,94051.41
2022-09-13T14:58:04.316Z,94042.25
2022-09-13T15:00:46.147Z,94045.56
2022-09-13T15:03:16.465Z,94043.53
2022-09-13T15:05:53.626Z,94036.13
2022-09-13T15:08:35.257Z,94040.50
2022-09-13T15:11:05.827Z,94035.53
2022-09-13T15:13:34.474Z,94024.66
2022-09-13T15:16:01.581Z,94028.47
2022-09-13T15:18:36.954Z,94024.66
2022-09-13T15:21:06.495Z,94020.47
2022-09-13T15:23:37.978Z,94031.53
2022-09-13T15:26:10.402Z,94025.00
2022-09-13T15:28:49.052Z,94017.59
2022-09-13T15:31:24.825Z,94011.19
2022-09-13T15:34:20.446Z,94009.22
2022-09-13T15:36:49.865Z,93997.88
2022-09-13T15:39:21.930Z,93993.16
2022-09-13T15:42:01.216Z,93987.03
2022-09-13T15:44:32.591Z,93985.31
2022-09-13T15:47:09.573Z,93956.44
2022-09-13T15:49:40.958Z,93988.84
2022-09-13T15:52:08.098Z,93975.00
2022-09-13T15:54:41.450Z,93979.22
2022-09-13T15:57:18.419Z,93970.47
2022-09-13T15:59:45.401Z,93960.66
2022-09-13T16:02:33.230Z,93961.34
2022-09-13T16:05:00.195Z,93960.94
2022-09-13T16:07:27.383Z,93958.72
2022-09-13T16:09:54.454Z,93973.88
2022-09-13T16:12:24.616Z,93972.91
2022-09-13T16:14:51.657Z,93966.41
2022-09-13T16:17:27.113Z,93972.81
2022-09-13T16:19:54.921Z,93961.66
2022-09-13T16:22:22.507Z,93978.56
2022-09-13T16:24:50.328Z,93974.44
2022-09-13T16:27:19.529Z,93963.16
2022-09-13T16:29:47.474Z,93952.25
2022-09-13T16:32:14.574Z,93966.19
2022-09-13T16:34:41.441Z,93961.75
2022-09-13T16:37:08.190Z,93961.38
2022-09-13T16:39:34.971Z,93968.84
2022-09-13T16:42:01.885Z,93953.69
2022-09-13T16:44:28.611Z,93958.41
2022-09-13T16:46:55.355Z,93955.50
2022-09-13T16:49:22.153Z,93956.13
2022-09-13T16:51:49.069Z,93961.09
2022-09-13T16:54:15.857Z,93941.31
2022-09-13T16:56:42.692Z,93947.03
2022-09-13T16:59:09.642Z,93940.44
2022-09-13T17:01:37.603Z,93942.94
2022-09-13T17:04:04.450Z,93940.63
2022-09-13T17:06:31.214Z,93948.19
2022-09-13T17:09:01.711Z,93958.50
2022-09-13T17:11:31.886Z,93960.72
2022-09-13T17:14:01.069Z,93957.53
2022-09-13T17:16:38.340Z,93944.69
2022-09-13T17:19:09.476Z,93956.03
2022-09-13T17:21:36.331Z,93947.47
2022-09-13T17:24:03.869Z,93957.72
2022-09-13T17:26:30.634Z,93936.53
2022-09-13T17:28:57.510Z,93934.13
2022-09-13T17:31:24.555Z,93933.59
2022-09-13T17:33:53.319Z,93929.34
2022-09-13T17:36:20.862Z,93942.50
2022-09-13T17:38:48.258Z,93930.97
2022-09-13T17:41:19.357Z,93931.50
2022-09-13T17:43:47.567Z,93949.78
2022-09-13T17:46:22.376Z,93951.34
2022-09-13T17:48:52.248Z,93941.69
2022-09-13T17:51:25.319Z,93941.69
2022-09-13T17:54:07.139Z,93935.75
2022-09-13T17:56:38.071Z,93929.81
2022-09-13T17:59:10.589Z,93934.91
2022-09-13T18:01:40.927Z,93940.53
2022-09-13T18:04:08.567Z,93932.41
2022-09-13T18:06:37.393Z,93944.19
2022-09-13T18:09:05.053Z,93924.28
2022-09-13T18:11:31.830Z,93942.50
2022-09-13T18:13:58.801Z,93952.16
2022-09-13T18:16:29.534Z,93958.53
2022-09-13T18:18:57.066Z,93956.88
2022-09-13T18:21:26.092Z,93946.91
2022-09-13T18:23:58.135Z,93952.81
2022-09-13T18:26:27.698Z,93955.19
2022-09-13T18:29:04.259Z,93954.50
2022-09-13T18:31:33.515Z,93965.47
2022-09-13T18:34:04.106Z,93971.06
2022-09-13T18:36:33.547Z,93953.72
2022-09-13T18:39:03.128Z,93973.31
2022-09-13T18:41:40.538Z,93971.34
2022-09-13T18:44:09.633Z,93977.09
2022-09-13T18:46:37.538Z,93974.66
2022-09-13T18:49:05.802Z,93975.19
2022-09-13T18:51:39.260Z,93974.31
2022-09-13T18:54:08.415Z,93979.13
2022-09-13T18:56:35.895Z,93965.34
2022-09-13T18:59:06.355Z,93969.63
2022-09-13T19:01:37.163Z,93989.50
2022-09-13T19:04:12.211Z,93994.31
2022-09-13T19:06:42.810Z,93983.22
2022-09-13T19:09:10.907Z,93983.72
2022-09-13T19:11:48.189Z,93984.03
2022-09-13T19:14:27.255Z,93978.84
2022-09-13T19:16:57.279Z,93968.06
2022-09-13T19:19:24.839Z,93990.63
2022-09-13T19:21:51.825Z,93984.66
2022-09-13T19:24:20.231Z,93986.75
2022-09-13T19:26:52.828Z,93984.31
2022-09-13T19:29:23.540Z,93993.66
2022-09-13T19:31:52.744Z,93992.81
2022-09-13T19:34:22.158Z,93998.28
2022-09-13T19:36:52.670Z,94000.41
2022-09-13T19:39:19.578Z,93988.88
2022-09-13T19:41:46.732Z,93989.91
2022-09-13T19:44:15.222Z,93986.69
2022-09-13T19:46:43.730Z,93999.28
2022-09-13T19:49:17.253Z,93996.56
2022-09-13T19:51:51.342Z,93998.16
2022-09-13T19:54:19.045Z,93991.72
2022-09-13T19:56:46.630Z,93995.31
2022-09-13T19:59:16.904Z,93981.94
2022-09-13T20:01:45.897Z,93983.97
2022-09-13T20:04:18.312Z,93989.06
2022-09-13T20:06:48.316Z,93978.69
2022-09-13T20:09:17.535Z,93984.19
2022-09-13T20:11:45.603Z,93985.16
2022-09-13T20:14:15.241Z,93980.38
2022-09-13T20:16:43.038Z,93969.38
2022-09-13T20:19:39.426Z,93961.22
2022-09-13T20:22:05.916Z,93956.91
2022-09-13T20:24:32.738Z,93948.56
2022-09-13T20:26:59.872Z,93941.94
2022-09-13T20:29:26.634Z,93932.53
2022-09-13T20:31:55.558Z,93937.84
2022-09-13T20:34:22.649Z,93949.56
2022-09-13T20:36:49.375Z,93924.16
2022-09-13T20:39:16.379Z,93927.88
2022-09-13T20:41:44.265Z,93936.44
2022-09-13T20:44:12.291Z,93929.97
2022-09-13T20:46:40.503Z,93913.91
2022-09-13T20:49:10.546Z,93913.34
2022-09-13T20:51:37.750Z,93924.59
2022-09-13T20:54:05.379Z,93921.84
2022-09-13T20:56:34.483Z,93928.53
2022-09-13T20:59:01.936Z,93936.25
2022-09-13T21:01:31.210Z,93940.75
2022-09-13T21:03:59.297Z,93935.19
2022-09-13T21:06:29.777Z,93934.28
2022-09-13T21:08:59.956Z,93928.00
2022-09-13T21:11:33.518Z,93935.53
2022-09-13T21:14:08.622Z,93943.28
2022-09-13T21:16:39.566Z,93938.50
2022-09-13T21:19:08.062Z,93940.38
2022-09-13T21:21:40.249Z,93942.50
2022-09-13T21:24:10.128Z,93949.94
2022-09-13T21:26:42.110Z,93955.75
2022-09-13T21:29:11.501Z,93954.94
2022-09-13T21:31:39.129Z,93941.03
2022-09-13T21:34:18.230Z,93944.44
2022-09-13T21:36:46.413Z,93942.25
2022-09-13T21:39:14.021Z,93951.88
2022-09-13T21:41:41.128Z,93942.75
2022-09-13T21:44:08.097Z,93949.78
2022-09-13T21:46:37.278Z,93934.66
2022-09-13T21:49:10.822Z,93959.25
2022-09-13T21:51:48.482Z,93957.63
2022-09-13T21:54:18.845Z,93959.25
2022-09-13T21:56:54.121Z,93941.88
2022-09-13T21:59:23.020Z,93939.75
2022-09-13T22:01:52.525Z,93949.13
2022-09-13T22:04:23.828Z,93932.94
2022-09-13T22:06:53.524Z,93938.16
2022-09-13T22:09:27.044Z,93945.13
2022-09-13T22:11:55.999Z,93945.72
2022-09-13T22:14:22.966Z,93930.66
2022-09-13T22:16:53.063Z,93937.13
2022-09-13T22:19:26.601Z,93929.59
2022-09-13T22:21:56.890Z,93938.16
2022-09-13T22:24:26.649Z,93929.53
2022-09-13T22:26:56.467Z,93935.66
2022-09-13T22:29:23.723Z,93933.25
2022-09-13T22:31:52.287Z,93927.59
2022-09-13T22:34:22.910Z,93928.41
2022-09-13T22:36:50.282Z,93915.47
2022-09-13T22:39:17.467Z,93919.00
2022-09-13T22:41:44.907Z,93911.56
2022-09-13T22:44:12.069Z,93898.53
2022-09-13T22:46:42.565Z,93916.06
2022-09-13T22:49:17.331Z,93916.06
2022-09-13T22:51:45.357Z,93909.78
2022-09-13T22:54:13.930Z,93883.19
2022-09-13T22:56:41.576Z,93888.16
2022-09-13T22:59:20.859Z,93909.78
2022-09-13T23:01:48.155Z,93892.97
2022-09-13T23:04:15.338Z,93896.94
2022-09-13T23:06:44.093Z,93895.53
2022-09-13T23:09:13.887Z,93891.03
2022-09-13T23:11:41.041Z,93882.53
2022-09-13T23:14:13.078Z,93873.34
2022-09-13T23:16:44.254Z,93863.72
2022-09-13T23:19:13.656Z,93864.53
2022-09-13T23:21:41.183Z,93880.38
2022-09-13T23:24:16.298Z,93883.28
2022-09-13T23:26:44.970Z,93874.88
2022-09-13T23:29:18.193Z,93863.09
2022-09-13T23:31:47.200Z,93868.88
2022-09-13T23:34:14.975Z,93862.25
2022-09-13T23:36:44.136Z,93872.09
2022-09-13T23:39:16.794Z,93866.53
2022-09-13T23:41:46.236Z,93864.22
2022-09-13T23:44:13.342Z,93866.16
2022-09-13T23:46:40.234Z,93862.69
2022-09-13T23:49:06.979Z,93862.91
2022-09-13T23:51:33.785Z,93859.69
2022-09-13T23:54:01.226Z,93868.00
2022-09-13T23:56:30.998Z,93862.34
2022-09-13T23:58:59.722Z,93855.94
